Terminal Aerodrome Forecast
Issued by NWS

Home | Current Version | Previous Version | Text Only | Print | Product List | Glossary On
Versions: 1 2 3 4 5 6 7 8 9 10 11 12 13 14 15 16 17 18 19 20
000
FTUS43 KMQT 261133 AAC
TAFIWD
TAF AMD
KIWD 261133Z 2612/2712 00000KT 3SM BR OVC005
     FM261400 00000KT 6SM BR OVC008
     FM261600 00000KT P6SM BKN015
     FM261800 25003KT P6SM BKN050
     FM262300 32003KT P6SM FEW150
     FM270500 00000KT 5SM BR SCT200=

USA.gov is the U.S. government's official web portal to all federal, state and local government web resources and services.